createdAt,value
2023-02-05T00:01:42.796Z,2.50
2023-02-05T00:04:10.500Z,2.27
2023-02-05T00:06:38.043Z,2.20
2023-02-05T00:09:06.981Z,2.10
2023-02-05T00:11:34.618Z,1.90
2023-02-05T00:14:02.287Z,2.03
2023-02-05T00:16:30.506Z,1.93
2023-02-05T00:18:58.437Z,2.23
2023-02-05T00:21:26.202Z,2.13
2023-02-05T00:23:54.680Z,2.87
2023-02-05T00:26:23.576Z,2.90
2023-02-05T00:28:51.268Z,3.03
2023-02-05T00:31:21.213Z,2.40
2023-02-05T00:33:49.689Z,2.70
2023-02-05T00:36:18.154Z,1.93
2023-02-05T00:38:46.923Z,2.20
2023-02-05T00:41:15.062Z,2.00
2023-02-05T00:43:44.307Z,2.30
2023-02-05T00:46:13.526Z,2.30
2023-02-05T00:48:42.797Z,2.53
2023-02-05T00:51:11.304Z,2.67
2023-02-05T00:53:40.716Z,2.20
2023-02-05T00:56:08.342Z,2.40
2023-02-05T00:58:36.448Z,2.97
2023-02-05T01:01:05.933Z,2.93
2023-02-05T01:03:33.621Z,2.73
2023-02-05T01:06:03.224Z,2.67
2023-02-05T01:08:30.960Z,2.40
2023-02-05T01:10:58.588Z,2.10
2023-02-05T01:13:26.501Z,2.07
2023-02-05T01:15:54.250Z,2.20
2023-02-05T01:18:23.226Z,2.20
2023-02-05T01:20:50.821Z,2.60
2023-02-05T01:23:18.648Z,2.10
2023-02-05T01:25:46.277Z,2.53
2023-02-05T01:28:15.737Z,2.40
2023-02-05T01:30:43.466Z,2.80
2023-02-05T01:33:11.143Z,2.47
2023-02-05T01:35:40.038Z,2.60
2023-02-05T01:38:08.493Z,2.40
2023-02-05T01:40:36.076Z,2.60
2023-02-05T01:43:03.948Z,2.97
2023-02-05T01:46:16.204Z,2.20
2023-02-05T01:48:49.578Z,2.43
2023-02-05T01:51:18.909Z,2.33
2023-02-05T01:53:48.520Z,3.00
2023-02-05T01:56:20.674Z,2.30
2023-02-05T01:58:52.508Z,2.60
2023-02-05T02:01:20.281Z,2.17
2023-02-05T02:03:49.023Z,2.30
2023-02-05T02:06:17.976Z,2.70
2023-02-05T02:08:45.685Z,2.27
2023-02-05T02:11:17.235Z,2.93
2023-02-05T02:13:46.893Z,2.20
2023-02-05T02:16:16.093Z,2.30
2023-02-05T02:18:45.113Z,2.60
2023-02-05T02:21:33.179Z,2.70
2023-02-05T02:24:21.247Z,2.30
2023-02-05T02:27:00.966Z,2.30
2023-02-05T02:29:38.660Z,2.60
2023-02-05T02:32:15.572Z,2.20
2023-02-05T02:34:48.982Z,2.40
2023-02-05T02:37:25.806Z,2.77
2023-02-05T02:40:00.663Z,2.37
2023-02-05T02:42:34.060Z,2.10
2023-02-05T02:45:08.587Z,1.90
2023-02-05T02:47:41.118Z,2.13
2023-02-05T02:50:13.302Z,2.10
2023-02-05T02:52:45.129Z,2.10
2023-02-05T02:55:15.293Z,2.43
2023-02-05T02:57:49.277Z,2.50
2023-02-05T03:00:21.454Z,2.30
2023-02-05T03:02:51.505Z,2.13
2023-02-05T03:05:23.378Z,2.63
2023-02-05T03:07:55.448Z,2.67
2023-02-05T03:10:33.274Z,2.63
2023-02-05T03:13:01.358Z,2.60
2023-02-05T03:15:32.272Z,2.83
2023-02-05T03:18:00.306Z,2.60
2023-02-05T03:20:32.315Z,2.70
2023-02-05T03:23:00.293Z,2.90
2023-02-05T03:25:30.160Z,2.67
2023-02-05T03:28:00.140Z,3.23
2023-02-05T03:30:40.409Z,3.63
2023-02-05T03:33:21.610Z,2.80
2023-02-05T03:35:59.609Z,3.50
2023-02-05T03:38:40.762Z,2.90
2023-02-05T03:41:20.832Z,2.80
2023-02-05T03:43:59.404Z,3.13
2023-02-05T03:46:36.531Z,2.60
2023-02-05T03:49:15.509Z,2.60
2023-02-05T03:51:51.177Z,2.67
2023-02-05T03:54:27.412Z,3.00
2023-02-05T03:57:02.053Z,2.27
2023-02-05T03:59:32.854Z,2.57
2023-02-05T04:02:04.779Z,2.43
2023-02-05T04:04:37.069Z,2.40
2023-02-05T04:07:07.421Z,1.97
2023-02-05T04:09:36.855Z,2.40
2023-02-05T04:12:05.994Z,2.33
2023-02-05T04:14:34.701Z,2.20
2023-02-05T04:17:03.661Z,2.43
2023-02-05T04:19:31.346Z,2.00
2023-02-05T04:22:01.205Z,2.90
2023-02-05T04:24:32.072Z,2.23
2023-02-05T04:27:00.017Z,1.97
2023-02-05T04:29:27.966Z,1.80
2023-02-05T04:31:56.831Z,2.10
2023-02-05T04:34:26.051Z,2.27
2023-02-05T04:36:54.098Z,2.17
2023-02-05T04:39:22.490Z,2.00
2023-02-05T04:41:50.231Z,2.60
2023-02-05T04:44:17.905Z,2.13
2023-02-05T04:46:45.570Z,1.90
2023-02-05T04:49:13.190Z,2.47
2023-02-05T04:51:42.208Z,2.10
2023-02-05T04:54:09.811Z,2.40
2023-02-05T04:56:37.693Z,2.20
2023-02-05T04:59:05.341Z,2.40
2023-02-05T05:01:33.091Z,2.63
2023-02-05T05:04:00.750Z,2.60
2023-02-05T05:06:28.640Z,2.87
2023-02-05T05:08:57.662Z,3.07
2023-02-05T05:11:25.824Z,2.10
2023-02-05T05:13:53.427Z,2.30
2023-02-05T05:16:21.366Z,2.83
2023-02-05T05:18:49.026Z,2.50
2023-02-05T05:21:16.645Z,2.70
2023-02-05T05:23:44.256Z,2.23
2023-02-05T05:26:13.923Z,2.20
2023-02-05T05:28:41.757Z,2.00
2023-02-05T05:31:10.999Z,2.40
2023-02-05T05:33:38.915Z,1.90
2023-02-05T05:36:07.833Z,1.97
2023-02-05T05:38:35.811Z,2.13
2023-02-05T05:41:21.222Z,1.83
2023-02-05T05:43:51.128Z,2.10
2023-02-05T05:46:22.936Z,1.97
2023-02-05T05:48:51.825Z,2.20
2023-02-05T05:51:19.546Z,2.10
2023-02-05T05:53:47.787Z,2.07
2023-02-05T05:56:16.359Z,2.20
2023-02-05T05:58:44.304Z,2.13
2023-02-05T06:01:14.902Z,1.87
2023-02-05T06:03:42.565Z,2.30
2023-02-05T06:06:11.796Z,2.20
2023-02-05T06:08:39.518Z,1.73
2023-02-05T06:11:07.698Z,2.27
2023-02-05T06:13:35.735Z,2.13
2023-02-05T06:16:03.585Z,2.10
2023-02-05T06:18:32.695Z,2.17
2023-02-05T06:21:01.679Z,2.33
2023-02-05T06:23:29.268Z,2.23
2023-02-05T06:25:56.933Z,2.60
2023-02-05T06:28:24.762Z,2.20
2023-02-05T06:30:52.471Z,1.97
2023-02-05T06:33:20.139Z,2.20
2023-02-05T06:35:49.135Z,2.10
2023-02-05T06:38:16.742Z,2.30
2023-02-05T06:40:44.334Z,2.00
2023-02-05T06:43:11.960Z,2.23
2023-02-05T06:45:39.626Z,2.10
2023-02-05T06:48:07.604Z,2.10
2023-02-05T06:50:35.263Z,2.23
2023-02-05T06:53:04.427Z,1.90
2023-02-05T06:55:32.130Z,1.83
2023-02-05T06:57:59.855Z,2.10
2023-02-05T07:00:27.482Z,2.20
2023-02-05T07:02:55.214Z,2.33
2023-02-05T07:05:22.977Z,2.33
2023-02-05T07:07:50.617Z,2.00
2023-02-05T07:10:20.093Z,2.03
2023-02-05T07:12:47.716Z,1.80
2023-02-05T07:15:15.338Z,2.50
2023-02-05T07:17:43.023Z,2.20
2023-02-05T07:20:11.774Z,2.23
2023-02-05T07:22:39.410Z,2.30
2023-02-05T07:25:07.874Z,1.90
2023-02-05T07:27:36.826Z,1.90
2023-02-05T07:30:05.217Z,2.00
2023-02-05T07:32:32.896Z,2.47
2023-02-05T07:35:00.558Z,2.77
2023-02-05T07:37:28.233Z,2.63
2023-02-05T07:39:55.827Z,2.40
2023-02-05T07:42:23.826Z,2.07
2023-02-05T07:44:58.627Z,2.10
2023-02-05T07:47:26.344Z,2.83
2023-02-05T07:49:54.042Z,2.40
2023-02-05T07:52:21.702Z,2.20
2023-02-05T07:54:49.431Z,2.23
2023-02-05T07:57:17.145Z,2.63
2023-02-05T07:59:44.743Z,2.50
2023-02-05T08:02:13.768Z,2.50
2023-02-05T08:04:41.569Z,2.20
2023-02-05T08:07:10.426Z,2.20
2023-02-05T08:09:38.194Z,2.70
2023-02-05T08:12:06.782Z,2.47
2023-02-05T08:14:34.419Z,2.40
2023-02-05T08:17:02.157Z,2.30
2023-02-05T08:19:31.351Z,2.43
2023-02-05T08:21:58.972Z,2.37
2023-02-05T08:24:26.611Z,2.60
2023-02-05T08:26:54.285Z,2.30
2023-02-05T08:29:21.900Z,2.30
2023-02-05T08:31:49.625Z,2.50
2023-02-05T08:34:19.845Z,2.40
2023-02-05T08:36:49.637Z,2.10
2023-02-05T08:39:17.276Z,2.93
2023-02-05T08:41:45.194Z,2.50
2023-02-05T08:44:13.398Z,2.57
2023-02-05T08:46:49.675Z,2.70
2023-02-05T08:49:18.720Z,2.17
2023-02-05T08:51:46.867Z,2.33
2023-02-05T08:54:16.124Z,2.67
2023-02-05T08:56:45.729Z,2.30
2023-02-05T08:59:13.908Z,2.40
2023-02-05T09:01:43.050Z,2.20
2023-02-05T09:04:15.186Z,2.27
2023-02-05T09:06:43.584Z,2.73
2023-02-05T09:09:11.872Z,2.50
2023-02-05T09:11:41.189Z,2.53
2023-02-05T09:14:09.955Z,2.40
2023-02-05T09:16:37.961Z,2.30
2023-02-05T09:19:06.273Z,2.67
2023-02-05T09:21:33.984Z,2.10
2023-02-05T09:24:01.777Z,2.20
2023-02-05T09:26:29.508Z,2.23
2023-02-05T09:28:58.823Z,2.53
2023-02-05T09:31:26.601Z,2.20
2023-02-05T09:33:55.741Z,2.17
2023-02-05T09:36:24.648Z,2.17
2023-02-05T09:39:11.914Z,1.87
2023-02-05T09:41:49.945Z,1.93
2023-02-05T09:44:29.367Z,1.93
2023-02-05T09:47:06.668Z,2.20
2023-02-05T09:49:39.558Z,2.53
2023-02-05T09:52:15.576Z,2.40
2023-02-05T09:54:47.373Z,1.97
2023-02-05T09:57:17.648Z,2.67
2023-02-05T09:59:48.509Z,2.57
2023-02-05T10:02:25.736Z,2.20
2023-02-05T10:04:54.812Z,1.97
2023-02-05T10:07:29.816Z,2.10
2023-02-05T10:10:26.639Z,2.40
2023-02-05T10:13:26.974Z,2.20
2023-02-05T10:16:20.805Z,2.00
2023-02-05T10:19:00.054Z,3.03
2023-02-05T10:21:43.135Z,2.17
2023-02-05T10:24:40.462Z,2.10
2023-02-05T10:27:15.555Z,2.57
2023-02-05T10:29:52.606Z,2.80
2023-02-05T10:32:24.054Z,2.43
2023-02-05T10:34:58.008Z,2.50
2023-02-05T10:37:36.549Z,2.20
2023-02-05T10:40:14.242Z,2.03
2023-02-05T10:42:45.757Z,2.30
2023-02-05T10:45:19.173Z,2.70
2023-02-05T10:48:02.015Z,2.40
2023-02-05T10:50:37.729Z,2.30
2023-02-05T10:53:05.477Z,2.17
2023-02-05T10:55:33.633Z,2.30
2023-02-05T10:58:08.937Z,2.83
2023-02-05T11:00:36.933Z,2.50
2023-02-05T11:03:07.182Z,2.47
2023-02-05T11:05:39.220Z,2.20
2023-02-05T11:08:34.717Z,2.53
2023-02-05T11:11:04.655Z,2.77
2023-02-05T11:13:32.554Z,2.67
2023-02-05T11:16:04.245Z,2.50
2023-02-05T11:18:37.486Z,2.10
2023-02-05T11:21:08.654Z,2.30
2023-02-05T11:23:40.153Z,2.57
2023-02-05T11:26:18.687Z,2.03
2023-02-05T11:28:46.478Z,2.13
2023-02-05T11:31:25.360Z,2.20
2023-02-05T11:34:11.380Z,2.60
2023-02-05T11:36:48.452Z,2.40
2023-02-05T11:39:31.002Z,2.60
2023-02-05T11:41:58.817Z,2.50
2023-02-05T11:44:30.418Z,2.67
2023-02-05T11:47:01.776Z,2.60
2023-02-05T11:49:36.036Z,2.30
2023-02-05T11:52:10.664Z,2.90
2023-02-05T11:54:40.165Z,2.20
2023-02-05T11:57:29.081Z,2.43
2023-02-05T11:59:57.964Z,2.77
2023-02-05T12:02:33.077Z,2.37
2023-02-05T12:05:08.523Z,2.70
2023-02-05T12:07:40.918Z,2.17
2023-02-05T12:10:16.797Z,2.23
2023-02-05T12:12:54.923Z,2.50
2023-02-05T12:15:26.502Z,2.40
2023-02-05T12:18:05.502Z,2.17
2023-02-05T12:20:39.243Z,2.40
2023-02-05T12:23:26.706Z,2.30
2023-02-05T12:26:05.673Z,2.17
2023-02-05T12:28:44.988Z,2.47
2023-02-05T12:31:24.234Z,2.23
2023-02-05T12:34:09.975Z,2.50
2023-02-05T12:36:53.718Z,2.50
2023-02-05T12:39:36.121Z,2.23
2023-02-05T12:42:16.874Z,2.37
2023-02-05T12:44:59.441Z,2.43
2023-02-05T12:47:42.510Z,2.33
2023-02-05T12:50:28.447Z,1.93
2023-02-05T12:53:13.957Z,1.93
2023-02-05T12:55:52.011Z,2.27
2023-02-05T12:58:21.743Z,2.00
2023-02-05T13:00:52.551Z,2.40
2023-02-05T13:03:28.167Z,2.30
2023-02-05T13:05:59.384Z,2.10
2023-02-05T13:08:39.445Z,2.17
2023-02-05T13:11:13.297Z,2.17
2023-02-05T13:13:48.958Z,1.90
2023-02-05T13:16:18.785Z,1.93
2023-02-05T13:18:51.369Z,2.27
2023-02-05T13:21:38.908Z,2.07
2023-02-05T13:24:41.018Z,2.00
2023-02-05T13:27:37.305Z,2.10
2023-02-05T13:30:09.671Z,2.13
2023-02-05T13:32:38.791Z,1.80
2023-02-05T13:35:09.190Z,2.43
2023-02-05T13:37:55.895Z,2.23
2023-02-05T13:40:36.637Z,2.03
2023-02-05T13:43:43.843Z,1.97
2023-02-05T13:46:38.434Z,2.20
2023-02-05T13:49:42.857Z,2.10
2023-02-05T13:52:23.371Z,1.90
2023-02-05T13:55:24.984Z,2.10
2023-02-05T13:58:21.344Z,1.43
2023-02-05T14:01:00.469Z,1.70
2023-02-05T14:03:35.335Z,2.03
2023-02-05T14:06:21.726Z,2.20
2023-02-05T14:08:50.854Z,1.87
2023-02-05T14:11:19.829Z,2.07
2023-02-05T14:14:21.394Z,2.10
2023-02-05T14:16:51.046Z,2.07
2023-02-05T14:19:23.011Z,2.00
2023-02-05T14:21:59.532Z,1.60
2023-02-05T14:24:42.088Z,2.00
2023-02-05T14:27:55.190Z,2.00
2023-02-05T14:30:46.671Z,1.93
2023-02-05T14:33:43.179Z,2.00
2023-02-05T14:36:40.758Z,1.87
2023-02-05T14:39:21.508Z,1.80
2023-02-05T14:41:55.008Z,1.93
2023-02-05T14:44:29.481Z,1.70
2023-02-05T14:47:03.331Z,2.17
2023-02-05T14:49:40.432Z,1.87
2023-02-05T14:52:20.248Z,1.87
2023-02-05T14:54:52.066Z,1.80
2023-02-05T14:57:25.875Z,1.73
2023-02-05T14:59:57.310Z,1.83
2023-02-05T15:02:56.801Z,2.17
2023-02-05T15:05:32.760Z,1.60
2023-02-05T15:08:10.054Z,2.03
2023-02-05T15:10:46.696Z,2.87
2023-02-05T15:13:16.367Z,1.80
2023-02-05T15:16:22.760Z,1.90
2023-02-05T15:18:54.260Z,1.40
2023-02-05T15:21:26.897Z,2.20
2023-02-05T15:24:02.177Z,2.00
2023-02-05T15:26:39.922Z,1.60
2023-02-05T15:29:13.496Z,1.97
2023-02-05T15:31:46.458Z,1.47
2023-02-05T15:34:37.254Z,1.80
2023-02-05T15:37:07.658Z,1.63
2023-02-05T15:39:43.002Z,1.60
2023-02-05T15:42:16.536Z,2.10
2023-02-05T15:44:44.147Z,1.93
2023-02-05T15:47:18.346Z,1.90
2023-02-05T15:49:50.095Z,1.90
2023-02-05T15:52:22.446Z,2.50
2023-02-05T15:54:51.678Z,2.50
2023-02-05T15:57:23.723Z,2.90
2023-02-05T15:59:52.887Z,2.33
2023-02-05T16:02:22.644Z,2.33
2023-02-05T16:04:57.397Z,2.20
2023-02-05T16:07:28.294Z,1.60
2023-02-05T16:09:58.326Z,1.80
2023-02-05T16:12:26.222Z,2.00
2023-02-05T16:15:02.156Z,1.70
2023-02-05T16:17:35.953Z,1.60
2023-02-05T16:20:17.495Z,1.40
2023-02-05T16:22:48.203Z,1.37
2023-02-05T16:25:27.959Z,1.60
2023-02-05T16:27:57.329Z,1.73
2023-02-05T16:30:34.993Z,1.60
2023-02-05T16:33:05.009Z,1.70
2023-02-05T16:35:38.228Z,1.50
2023-02-05T16:38:09.177Z,1.40
2023-02-05T16:40:43.038Z,1.57
2023-02-05T16:43:28.257Z,1.17
2023-02-05T16:46:33.324Z,1.53
2023-02-05T16:49:02.241Z,2.10
2023-02-05T16:51:52.853Z,1.97
2023-02-05T16:54:33.087Z,2.10
2023-02-05T16:57:05.308Z,1.83
2023-02-05T16:59:36.324Z,1.50
2023-02-05T17:02:04.980Z,1.93
2023-02-05T17:04:34.707Z,2.10
2023-02-05T17:07:07.000Z,1.83
2023-02-05T17:09:36.579Z,2.00
2023-02-05T17:12:36.481Z,1.83
2023-02-05T17:15:20.938Z,1.67
2023-02-05T17:17:51.865Z,1.90
2023-02-05T17:20:22.507Z,2.30
2023-02-05T17:23:12.130Z,1.90
2023-02-05T17:25:42.094Z,1.93
2023-02-05T17:28:17.051Z,2.20
2023-02-05T17:30:46.403Z,1.80
2023-02-05T17:33:18.389Z,2.20
2023-02-05T17:35:46.235Z,2.50
2023-02-05T17:38:15.602Z,2.03
2023-02-05T17:40:43.483Z,2.07
2023-02-05T17:43:11.336Z,1.87
2023-02-05T17:45:41.587Z,1.70
2023-02-05T17:48:10.048Z,1.73
2023-02-05T17:50:37.977Z,2.00
2023-02-05T17:53:05.680Z,1.70
2023-02-05T17:55:34.653Z,1.80
2023-02-05T17:58:02.224Z,1.60
2023-02-05T18:00:32.853Z,1.80
2023-02-05T18:03:00.606Z,2.00
2023-02-05T18:05:28.350Z,1.90
2023-02-05T18:07:58.626Z,2.20
2023-02-05T18:10:28.469Z,1.80
2023-02-05T18:12:57.485Z,2.07
2023-02-05T18:15:26.623Z,1.50
2023-02-05T18:17:54.587Z,1.90
2023-02-05T18:20:22.284Z,2.07
2023-02-05T18:22:50.234Z,1.80
2023-02-05T18:25:19.283Z,2.13
2023-02-05T18:27:48.127Z,1.90
2023-02-05T18:30:18.508Z,2.20
2023-02-05T18:32:46.102Z,2.50
2023-02-05T18:35:14.866Z,2.47
2023-02-05T18:37:43.006Z,2.80
2023-02-05T18:40:12.609Z,2.63
2023-02-05T18:42:41.217Z,2.43
2023-02-05T18:45:10.002Z,2.53
2023-02-05T18:47:38.962Z,2.23
2023-02-05T18:50:10.133Z,2.07
2023-02-05T18:52:38.185Z,2.60
2023-02-05T18:55:07.588Z,3.30
2023-02-05T18:57:35.365Z,3.67
2023-02-05T19:00:03.144Z,3.50
2023-02-05T19:02:30.940Z,4.03
2023-02-05T19:05:00.404Z,3.60
2023-02-05T19:07:28.475Z,4.10
2023-02-05T19:09:57.599Z,4.30
2023-02-05T19:12:25.311Z,4.00
2023-02-05T19:14:52.966Z,3.70
2023-02-05T19:17:20.598Z,4.20
2023-02-05T19:19:50.521Z,4.07
2023-02-05T19:22:19.451Z,4.17
2023-02-05T19:24:47.300Z,3.50
2023-02-05T19:27:15.893Z,3.70
2023-02-05T19:29:43.908Z,4.10
2023-02-05T19:32:11.515Z,4.33
2023-02-05T19:34:40.901Z,4.03
2023-02-05T19:37:10.627Z,3.83
2023-02-05T19:39:41.052Z,4.03
2023-02-05T19:42:08.730Z,4.33
2023-02-05T19:44:36.357Z,4.27
2023-02-05T19:47:04.017Z,4.20
2023-02-05T19:49:31.703Z,5.20
2023-02-05T19:52:00.016Z,4.23
2023-02-05T19:54:29.448Z,4.23
2023-02-05T19:56:58.469Z,5.30
2023-02-05T19:59:26.125Z,4.50
2023-02-05T20:01:53.950Z,3.77
2023-02-05T20:04:24.692Z,4.07
2023-02-05T20:06:56.557Z,3.80
2023-02-05T20:09:24.223Z,3.67
2023-02-05T20:11:54.357Z,3.40
2023-02-05T20:14:24.185Z,3.10
2023-02-05T20:16:52.581Z,3.70
2023-02-05T20:19:21.131Z,3.30
2023-02-05T20:21:49.047Z,3.57
2023-02-05T20:24:17.335Z,3.17
2023-02-05T20:26:47.793Z,3.00
2023-02-05T20:29:33.051Z,2.60
2023-02-05T20:32:02.288Z,2.40
2023-02-05T20:34:33.303Z,2.10
2023-02-05T20:37:05.245Z,2.20
2023-02-05T20:39:35.225Z,2.50
2023-02-05T20:42:03.462Z,2.10
2023-02-05T20:44:33.809Z,1.80
2023-02-05T20:47:02.992Z,2.57
2023-02-05T20:49:30.789Z,2.10
2023-02-05T20:51:58.560Z,2.40
2023-02-05T20:54:26.177Z,2.23
2023-02-05T20:56:57.026Z,2.00
2023-02-05T20:59:25.192Z,2.10
2023-02-05T21:01:53.584Z,1.97
2023-02-05T21:04:22.662Z,1.97
2023-02-05T21:06:50.374Z,2.03
2023-02-05T21:09:18.200Z,2.77
2023-02-05T21:11:46.280Z,3.00
2023-02-05T21:14:13.958Z,2.60
2023-02-05T21:16:41.619Z,3.27
2023-02-05T21:19:09.979Z,2.63
2023-02-05T21:21:39.026Z,3.03
2023-02-05T21:24:13.421Z,2.57
2023-02-05T21:26:42.817Z,2.40
2023-02-05T21:29:12.519Z,2.10
2023-02-05T21:31:44.008Z,2.00
2023-02-05T21:34:14.460Z,2.53
2023-02-05T21:36:43.438Z,2.80
2023-02-05T21:39:11.959Z,2.37
2023-02-05T21:41:39.738Z,2.40
2023-02-05T21:44:07.375Z,2.47
2023-02-05T21:46:35.456Z,2.33
2023-02-05T21:49:04.053Z,2.53
2023-02-05T21:51:33.994Z,2.23
2023-02-05T21:54:05.111Z,1.90
2023-02-05T21:56:34.814Z,2.20
2023-02-05T21:59:02.566Z,2.27
2023-02-05T22:01:32.879Z,2.43
2023-02-05T22:04:02.109Z,3.00
2023-02-05T22:06:31.557Z,2.93
2023-02-05T22:08:59.995Z,3.40
2023-02-05T22:11:29.575Z,3.30
2023-02-05T22:13:57.783Z,3.60
2023-02-05T22:16:27.103Z,2.93
2023-02-05T22:18:55.965Z,3.10
2023-02-05T22:21:25.402Z,3.30
2023-02-05T22:23:55.620Z,4.37
2023-02-05T22:26:24.929Z,4.33
2023-02-05T22:28:54.303Z,4.50
2023-02-05T22:31:22.283Z,4.60
2023-02-05T22:33:51.059Z,4.80
2023-02-05T22:36:20.972Z,5.90
2023-02-05T22:38:49.874Z,5.30
2023-02-05T22:41:19.629Z,6.03
2023-02-05T22:43:47.328Z,5.70
2023-02-05T22:46:17.859Z,6.67
2023-02-05T22:48:47.220Z,5.57
2023-02-05T22:51:17.795Z,5.30
2023-02-05T22:53:45.516Z,5.07
2023-02-05T22:56:14.112Z,5.47
2023-02-05T22:58:45.256Z,4.70
2023-02-05T23:01:14.743Z,5.50
2023-02-05T23:03:45.657Z,5.23
2023-02-05T23:06:15.055Z,5.40
2023-02-05T23:08:43.479Z,4.60
2023-02-05T23:11:14.523Z,5.20
2023-02-05T23:13:42.986Z,5.37
2023-02-05T23:16:13.112Z,5.70
2023-02-05T23:18:43.353Z,6.00
2023-02-05T23:21:12.393Z,5.17
2023-02-05T23:23:40.210Z,5.00
2023-02-05T23:26:09.377Z,5.67
2023-02-05T23:28:37.348Z,4.97
2023-02-05T23:31:05.646Z,4.23
2023-02-05T23:33:33.899Z,4.07
2023-02-05T23:36:03.672Z,4.00
2023-02-05T23:38:31.326Z,3.50
2023-02-05T23:40:59.455Z,3.57
2023-02-05T23:43:27.863Z,3.30
2023-02-05T23:45:56.075Z,3.30
2023-02-05T23:48:23.715Z,3.40
2023-02-05T23:50:52.219Z,3.10
2023-02-05T23:53:21.955Z,3.03
2023-02-05T23:55:51.564Z,2.90
2023-02-05T23:58:20.942Z,2.90
